Huvudsida
METAR-TAF:

METAR-TAF

Flygplatser :

Rarotonga International Airport

Rarotonga, Cooköarna

latitud: 21-12S, longitud: 159-49W, höjd: 7 m

Aktuellt väderrapport

Denna rapport gjordes för 1 timme och 6 minuter sedan, klockan 05:00 UTC
Vind 7 kt från syd
Temperatur 25°C
Fuktighet 79%
Tryck 1008 hPa
Sikt 10 km eller mer
Få moln på en höjd av 1800 ft
Spridda moln på en höjd av 10000 ft
Brutna moln på en höjd av 29000 ft

METAR: NCRG 160500Z 19007KT 9999 FEW018 SCT100 BKN290 25/21 Q1008

Tid: 20:06 (06:06 UTC)

Väderprognos

Denna rapport gjordes för 1 timme och 1 minuter sedan, klockan 05:05 UTC
Prognos gäller från 16 kl. 06 UTC till 17 kl. 06 UTC
Vind 6 kt från syd
Sikt 10 km eller mer
Spridda moln på en höjd av 2000 ft
Brutna moln på en höjd av 10000 ft
Sannolikhet 30% :
Temporärt
från 17 kl. 00 UTC till 17 kl. 06 UTC
Sikt: 5000 m
Brutna moln på en höjd av 1500 ft
regnskurar

TAF: NCRG 160505Z 1606/1706 19006KT 9999 SCT020 BKN100 PROB30 TEMPO 1700/1706 5000 SHRA BKN015

Aktuella väderrapporter och prognoser från 4000 flygplatser (METAR- och TAF-rapporter).

De tillgängliga stationerna syns som gula och röda prickar på kartan.

För musen över prickarna för att se namnen på stationerna.

Klicka sedan för att få väderrapporter och prognoser.

För att ändra kartan: Klicka på de gröna knapparna med ett svart kors på för att zooma in; den gröna knappen med ett streck på för att zooma ut; eller på de gröna pilarna för angränsande kartor.


METAR-TAF: